createdAt,value
2022-10-21T00:02:00.009Z,12.60
2022-10-21T00:04:28.223Z,12.50
2022-10-21T00:06:56.256Z,12.60
2022-10-21T00:09:24.274Z,12.70
2022-10-21T00:11:52.891Z,12.70
2022-10-21T00:14:20.806Z,12.60
2022-10-21T00:16:48.786Z,12.50
2022-10-21T00:19:16.853Z,12.40
2022-10-21T00:21:44.779Z,12.30
2022-10-21T00:24:12.971Z,12.20
2022-10-21T00:26:42.151Z,12.20
2022-10-21T00:29:10.128Z,12.10
2022-10-21T00:31:38.162Z,12.20
2022-10-21T00:34:06.165Z,12.20
2022-10-21T00:36:34.091Z,12.10
2022-10-21T00:39:02.479Z,12.00
2022-10-21T00:41:31.339Z,12.00
2022-10-21T00:44:07.046Z,11.90
2022-10-21T00:46:43.846Z,11.80
2022-10-21T00:49:38.287Z,11.80
2022-10-21T00:52:12.469Z,11.80
2022-10-21T00:54:42.091Z,11.80
2022-10-21T00:57:11.941Z,11.90
2022-10-21T00:59:44.651Z,11.80
2022-10-21T01:02:13.774Z,11.70
2022-10-21T01:04:42.813Z,12.00
2022-10-21T01:07:11.812Z,12.00
2022-10-21T01:09:40.174Z,12.10
2022-10-21T01:12:19.697Z,12.00
2022-10-21T01:15:00.890Z,12.00
2022-10-21T01:17:44.991Z,12.00
2022-10-21T01:20:20.699Z,12.00
2022-10-21T01:23:27.440Z,12.00
2022-10-21T01:26:16.884Z,12.00
2022-10-21T01:29:09.070Z,11.80
2022-10-21T01:32:09.468Z,11.80
2022-10-21T01:35:04.745Z,11.70
2022-10-21T01:38:36.716Z,11.80
2022-10-21T01:41:10.594Z,11.80
2022-10-21T01:44:11.828Z,11.80
2022-10-21T01:46:50.708Z,11.90
2022-10-21T01:49:41.093Z,11.80
2022-10-21T01:52:09.921Z,11.90
2022-10-21T01:54:44.708Z,11.90
2022-10-21T01:57:17.133Z,12.00
2022-10-21T01:59:47.462Z,11.90
2022-10-21T02:02:17.818Z,11.80
2022-10-21T02:04:47.210Z,11.70
2022-10-21T02:07:15.827Z,11.60
2022-10-21T02:09:44.521Z,11.50
2022-10-21T02:12:13.415Z,11.50
2022-10-21T02:14:51.814Z,11.40
2022-10-21T02:17:22.738Z,11.40
2022-10-21T02:19:51.186Z,11.40
2022-10-21T02:22:22.494Z,11.40
2022-10-21T02:24:53.441Z,11.40
2022-10-21T02:27:22.603Z,11.40
2022-10-21T02:29:54.994Z,11.40
2022-10-21T02:32:31.735Z,11.50
2022-10-21T02:35:03.481Z,11.50
2022-10-21T02:40:09.466Z,11.60
2022-10-21T02:42:43.591Z,11.60
2022-10-21T02:45:11.972Z,11.70
2022-10-21T02:47:41.566Z,11.70
2022-10-21T02:50:10.523Z,11.70
2022-10-21T02:52:39.072Z,11.70
2022-10-21T02:55:07.851Z,11.60
2022-10-21T02:57:36.686Z,11.60
2022-10-21T03:00:06.407Z,11.60
2022-10-21T03:02:34.524Z,11.50
2022-10-21T03:05:03.060Z,11.50
2022-10-21T03:07:31.746Z,11.50
2022-10-21T03:10:00.201Z,11.50
2022-10-21T03:12:28.348Z,11.50
2022-10-21T03:14:56.671Z,11.40
2022-10-21T03:17:25.427Z,11.50
2022-10-21T03:19:54.351Z,11.50
2022-10-21T03:22:22.879Z,11.50
2022-10-21T03:24:50.922Z,11.50
2022-10-21T03:27:19.450Z,11.50
2022-10-21T03:29:48.038Z,11.50
2022-10-21T03:32:15.938Z,11.40
2022-10-21T03:34:43.836Z,11.20
2022-10-21T03:37:12.240Z,11.10
2022-10-21T03:39:40.226Z,10.90
2022-10-21T03:42:08.329Z,10.90
2022-10-21T03:44:36.373Z,10.80
2022-10-21T03:47:04.867Z,10.90
2022-10-21T03:49:32.876Z,11.00
2022-10-21T03:52:01.304Z,11.00
2022-10-21T03:54:29.500Z,11.20
2022-10-21T03:56:58.159Z,11.30
2022-10-21T03:59:26.682Z,11.30
2022-10-21T04:01:54.844Z,11.40
2022-10-21T04:04:23.001Z,11.50
2022-10-21T04:06:50.969Z,11.50
2022-10-21T04:09:19.745Z,11.50
2022-10-21T04:11:48.546Z,11.40
2022-10-21T04:14:16.605Z,11.30
2022-10-21T04:16:46.136Z,11.30
2022-10-21T04:19:20.189Z,11.30
2022-10-21T04:21:48.223Z,11.30
2022-10-21T04:24:17.420Z,11.20
2022-10-21T04:26:45.749Z,11.20
2022-10-21T04:29:14.779Z,11.10
2022-10-21T04:31:42.664Z,11.10
2022-10-21T04:34:11.304Z,11.10
2022-10-21T04:36:39.829Z,11.00
2022-10-21T04:39:07.828Z,11.00
2022-10-21T04:41:36.493Z,11.00
2022-10-21T04:44:04.742Z,11.20
2022-10-21T04:46:32.984Z,11.20
2022-10-21T04:49:01.484Z,11.20
2022-10-21T04:51:29.442Z,11.20
2022-10-21T04:53:57.744Z,11.20
2022-10-21T04:56:25.917Z,11.20
2022-10-21T04:58:54.447Z,11.10
2022-10-21T05:01:22.625Z,11.10
2022-10-21T05:03:51.587Z,11.10
2022-10-21T05:06:19.528Z,11.10
2022-10-21T05:08:47.978Z,11.10
2022-10-21T05:13:44.065Z,11.00
2022-10-21T05:16:12.478Z,11.00
2022-10-21T05:18:40.851Z,11.10
2022-10-21T05:21:09.400Z,11.10
2022-10-21T05:23:37.709Z,11.20
2022-10-21T05:26:06.001Z,11.20
2022-10-21T05:28:34.301Z,10.90
2022-10-21T05:31:02.429Z,10.80
2022-10-21T05:33:31.295Z,10.70
2022-10-21T05:36:01.974Z,10.50
2022-10-21T05:38:30.948Z,10.40
2022-10-21T05:40:59.448Z,10.30
2022-10-21T05:43:30.886Z,10.30
2022-10-21T05:45:58.833Z,10.10
2022-10-21T05:48:26.766Z,10.20
2022-10-21T05:50:56.461Z,10.30
2022-10-21T05:53:24.662Z,10.40
2022-10-21T05:56:00.706Z,10.40
2022-10-21T05:58:31.024Z,10.50
2022-10-21T06:01:00.645Z,10.70
2022-10-21T06:03:32.444Z,11.00
2022-10-21T06:06:03.270Z,11.30
2022-10-21T06:08:33.038Z,11.60
2022-10-21T06:11:08.853Z,11.80
2022-10-21T06:13:38.474Z,12.20
2022-10-21T06:16:08.527Z,12.40
2022-10-21T06:18:36.959Z,12.50
2022-10-21T06:21:05.565Z,12.60
2022-10-21T06:24:00.168Z,12.80
2022-10-21T06:26:30.937Z,12.80
2022-10-21T06:29:01.112Z,13.00
2022-10-21T06:31:29.126Z,13.20
2022-10-21T06:33:57.085Z,13.50
2022-10-21T06:36:25.984Z,13.80
2022-10-21T06:38:55.047Z,13.40
2022-10-21T06:41:23.091Z,13.50
2022-10-21T06:43:50.956Z,13.10
2022-10-21T06:46:19.281Z,12.50
2022-10-21T06:48:47.198Z,12.20
2022-10-21T06:51:20.448Z,12.10
2022-10-21T06:53:53.246Z,12.10
2022-10-21T06:56:22.669Z,12.30
2022-10-21T06:58:51.676Z,12.50
2022-10-21T07:01:34.445Z,12.80
2022-10-21T07:04:10.811Z,13.00
2022-10-21T07:06:39.623Z,13.80
2022-10-21T07:09:08.939Z,14.40
2022-10-21T07:11:37.367Z,14.90
2022-10-21T07:14:05.948Z,14.70
2022-10-21T07:16:36.330Z,14.90
2022-10-21T07:19:05.611Z,15.40
2022-10-21T07:21:33.700Z,15.80
2022-10-21T07:24:02.114Z,16.00
2022-10-21T07:26:33.018Z,16.10
2022-10-21T07:29:02.331Z,16.00
2022-10-21T07:31:35.819Z,15.90
2022-10-21T07:34:06.212Z,15.70
2022-10-21T07:36:37.777Z,15.80
2022-10-21T07:39:11.528Z,16.00
2022-10-21T07:41:43.690Z,16.10
2022-10-21T07:44:12.014Z,16.10
2022-10-21T07:46:42.088Z,16.30
2022-10-21T07:49:11.560Z,16.30
2022-10-21T07:51:40.506Z,16.20
2022-10-21T07:54:09.150Z,16.00
2022-10-21T07:56:44.791Z,16.00
2022-10-21T07:59:13.939Z,16.10
2022-10-21T08:04:18.963Z,16.40
2022-10-21T08:06:48.936Z,16.80
2022-10-21T08:09:17.478Z,17.20
2022-10-21T08:11:46.132Z,17.40
2022-10-21T08:14:14.940Z,17.60
2022-10-21T08:16:42.937Z,17.80
2022-10-21T08:20:14.398Z,17.90
2022-10-21T08:22:42.727Z,17.40
2022-10-21T08:25:11.842Z,17.70
2022-10-21T08:28:06.494Z,18.00
2022-10-21T08:30:34.459Z,18.10
2022-10-21T08:33:02.928Z,18.10
2022-10-21T08:35:31.683Z,18.30
2022-10-21T08:38:00.471Z,18.30
2022-10-21T08:40:36.272Z,18.30
2022-10-21T08:43:28.950Z,18.50
2022-10-21T08:46:03.282Z,18.90
2022-10-21T08:48:37.913Z,19.00
2022-10-21T08:51:09.322Z,19.20
2022-10-21T08:53:41.623Z,19.10
2022-10-21T08:56:19.552Z,19.20
2022-10-21T08:58:51.106Z,19.30
2022-10-21T09:01:22.888Z,19.40
2022-10-21T09:03:55.712Z,19.30
2022-10-21T09:06:55.623Z,19.40
2022-10-21T09:09:34.891Z,19.70
2022-10-21T09:12:25.921Z,19.80
2022-10-21T09:15:47.498Z,19.80
2022-10-21T09:18:46.696Z,19.70
2022-10-21T09:22:22.600Z,19.40
2022-10-21T09:25:13.968Z,19.80
2022-10-21T09:27:57.505Z,19.70
2022-10-21T09:30:26.290Z,19.40
2022-10-21T09:33:00.270Z,19.60
2022-10-21T09:35:31.083Z,19.60
2022-10-21T09:38:33.426Z,19.70
2022-10-21T09:41:03.758Z,19.80
2022-10-21T09:43:32.014Z,20.20
2022-10-21T09:46:00.112Z,20.30
2022-10-21T09:49:08.253Z,19.70
2022-10-21T09:51:37.926Z,20.00
2022-10-21T09:54:12.106Z,20.20
2022-10-21T09:56:59.223Z,20.40
2022-10-21T09:59:32.911Z,20.70
2022-10-21T10:02:12.866Z,20.80
2022-10-21T10:04:41.455Z,20.90
2022-10-21T10:07:32.766Z,20.70
2022-10-21T10:10:01.161Z,20.40
2022-10-21T10:12:30.993Z,20.40
2022-10-21T10:15:26.884Z,20.60
2022-10-21T10:17:58.228Z,20.80
2022-10-21T10:20:27.674Z,21.00
2022-10-21T10:23:04.451Z,21.20
2022-10-21T10:25:40.596Z,21.40
2022-10-21T10:28:09.679Z,21.60
2022-10-21T10:30:43.727Z,21.70
2022-10-21T10:33:30.713Z,21.70
2022-10-21T10:36:03.336Z,21.70
2022-10-21T10:38:38.721Z,21.70
2022-10-21T10:41:09.967Z,22.00
2022-10-21T10:43:47.399Z,22.10
2022-10-21T10:46:36.776Z,21.80
2022-10-21T10:49:13.105Z,21.50
2022-10-21T10:51:42.684Z,21.50
2022-10-21T10:54:24.975Z,21.60
2022-10-21T10:57:03.622Z,21.50
2022-10-21T10:59:56.996Z,21.50
2022-10-21T11:02:27.915Z,21.40
2022-10-21T11:04:59.658Z,21.20
2022-10-21T11:07:53.069Z,21.30
2022-10-21T11:10:35.036Z,21.30
2022-10-21T11:13:10.184Z,21.20
2022-10-21T11:15:56.109Z,21.20
2022-10-21T11:18:49.863Z,21.10
2022-10-21T11:21:33.202Z,21.30
2022-10-21T11:24:33.414Z,21.60
2022-10-21T11:27:33.827Z,21.60
2022-10-21T11:30:06.395Z,21.80
2022-10-21T11:32:43.535Z,22.00
2022-10-21T11:35:34.990Z,22.00
2022-10-21T11:38:12.135Z,21.90
2022-10-21T11:40:41.531Z,21.90
2022-10-21T11:43:27.571Z,22.00
2022-10-21T11:46:16.657Z,21.80
2022-10-21T11:49:02.790Z,21.70
2022-10-21T11:52:02.726Z,21.70
2022-10-21T11:55:09.906Z,21.60
2022-10-21T11:58:02.577Z,21.70
2022-10-21T12:00:47.123Z,21.60
2022-10-21T12:03:26.986Z,21.60
2022-10-21T12:06:13.867Z,21.60
2022-10-21T12:08:47.182Z,21.60
2022-10-21T12:11:25.804Z,21.60
2022-10-21T12:14:00.890Z,21.70
2022-10-21T12:16:31.992Z,21.70
2022-10-21T12:19:05.790Z,21.80
2022-10-21T12:21:37.856Z,21.80
2022-10-21T12:24:28.102Z,21.90
2022-10-21T12:27:10.465Z,21.80
2022-10-21T12:29:45.010Z,21.90
2022-10-21T12:32:25.857Z,22.00
2022-10-21T12:34:55.087Z,22.10
2022-10-21T12:37:43.352Z,22.10
2022-10-21T12:40:17.460Z,22.20
2022-10-21T12:42:48.643Z,22.40
2022-10-21T12:45:27.902Z,22.40
2022-10-21T12:47:57.068Z,22.40
2022-10-21T12:50:30.004Z,22.50
2022-10-21T12:53:22.406Z,22.40
2022-10-21T12:56:01.719Z,22.40
2022-10-21T12:58:45.648Z,22.30
2022-10-21T13:01:37.547Z,22.40
2022-10-21T13:04:24.934Z,22.30
2022-10-21T13:06:52.823Z,22.20
2022-10-21T13:09:56.709Z,22.10
2022-10-21T13:12:24.527Z,22.20
2022-10-21T13:15:00.779Z,22.30
2022-10-21T13:17:33.027Z,22.40
2022-10-21T13:20:06.920Z,22.40
2022-10-21T13:22:41.860Z,22.30
2022-10-21T13:25:16.575Z,22.40
2022-10-21T13:27:52.012Z,22.40
2022-10-21T13:30:33.426Z,22.50
2022-10-21T13:33:07.125Z,22.50
2022-10-21T13:35:45.993Z,22.60
2022-10-21T13:38:30.193Z,22.40
2022-10-21T13:41:07.994Z,22.30
2022-10-21T13:43:48.476Z,22.40
2022-10-21T13:46:19.793Z,22.40
2022-10-21T13:48:48.956Z,22.30
2022-10-21T13:51:26.147Z,22.30
2022-10-21T13:54:01.209Z,22.40
2022-10-21T13:56:35.257Z,22.40
2022-10-21T13:59:05.357Z,22.40
2022-10-21T14:01:51.447Z,22.40
2022-10-21T14:04:22.399Z,22.40
2022-10-21T14:06:55.006Z,21.90
2022-10-21T14:09:27.445Z,21.80
2022-10-21T14:12:03.988Z,21.90
2022-10-21T14:14:33.758Z,21.80
2022-10-21T14:17:05.763Z,21.70
2022-10-21T14:19:38.828Z,21.70
2022-10-21T14:22:10.018Z,21.60
2022-10-21T14:24:53.369Z,21.70
2022-10-21T14:27:30.089Z,21.70
2022-10-21T14:30:01.533Z,21.70
2022-10-21T14:32:32.144Z,21.60
2022-10-21T14:35:27.718Z,21.50
2022-10-21T14:38:01.616Z,21.40
2022-10-21T14:40:41.648Z,21.40
2022-10-21T14:43:12.949Z,21.40
2022-10-21T14:45:49.961Z,21.30
2022-10-21T14:48:25.795Z,21.20
2022-10-21T14:51:01.727Z,21.10
2022-10-21T14:53:37.108Z,21.10
2022-10-21T14:56:14.003Z,21.10
2022-10-21T14:58:45.996Z,21.00
2022-10-21T15:01:22.574Z,20.90
2022-10-21T15:03:53.753Z,20.90
2022-10-21T15:06:37.108Z,20.80
2022-10-21T15:09:11.130Z,20.60
2022-10-21T15:11:47.772Z,20.60
2022-10-21T15:14:24.011Z,20.60
2022-10-21T15:16:54.561Z,20.50
2022-10-21T15:19:52.238Z,20.50
2022-10-21T15:22:30.314Z,20.50
2022-10-21T15:25:08.221Z,20.50
2022-10-21T15:27:44.416Z,20.40
2022-10-21T15:30:18.041Z,20.40
2022-10-21T15:32:47.957Z,20.40
2022-10-21T15:35:21.589Z,20.30
2022-10-21T15:37:51.159Z,20.20
2022-10-21T15:40:21.092Z,20.20
2022-10-21T15:42:50.537Z,20.20
2022-10-21T15:45:23.180Z,20.10
2022-10-21T15:47:52.973Z,20.10
2022-10-21T15:50:24.787Z,20.00
2022-10-21T15:52:53.209Z,19.90
2022-10-21T15:55:22.393Z,19.80
2022-10-21T15:57:50.582Z,19.70
2022-10-21T16:00:22.124Z,19.70
2022-10-21T16:02:52.009Z,19.60
2022-10-21T16:05:24.133Z,19.50
2022-10-21T16:07:52.995Z,19.40
2022-10-21T16:10:36.246Z,19.30
2022-10-21T16:13:04.931Z,19.20
2022-10-21T16:15:32.935Z,19.20
2022-10-21T16:18:01.336Z,19.10
2022-10-21T16:20:31.733Z,18.90
2022-10-21T16:23:03.091Z,18.90
2022-10-21T16:25:33.483Z,18.80
2022-10-21T16:28:01.723Z,18.60
2022-10-21T16:30:42.009Z,18.50
2022-10-21T16:33:11.399Z,18.30
2022-10-21T16:35:39.873Z,18.00
2022-10-21T16:38:07.778Z,17.80
2022-10-21T16:40:36.794Z,17.70
2022-10-21T16:43:05.371Z,17.60
2022-10-21T16:45:34.401Z,17.50
2022-10-21T16:48:04.895Z,17.40
2022-10-21T16:50:43.642Z,17.30
2022-10-21T16:53:15.659Z,17.10
2022-10-21T16:55:44.016Z,17.00
2022-10-21T16:58:12.336Z,17.00
2022-10-21T17:00:41.448Z,16.90
2022-10-21T17:03:12.132Z,16.90
2022-10-21T17:05:41.263Z,16.90
2022-10-21T17:08:09.938Z,16.80
2022-10-21T17:10:38.417Z,16.80
2022-10-21T17:13:07.272Z,16.70
2022-10-21T17:15:35.790Z,16.70
2022-10-21T17:18:03.837Z,16.60
2022-10-21T17:20:33.418Z,16.70
2022-10-21T17:23:02.454Z,16.50
2022-10-21T17:25:31.199Z,16.50
2022-10-21T17:27:59.927Z,16.30
2022-10-21T17:30:28.286Z,16.20
2022-10-21T17:32:56.276Z,16.10
2022-10-21T17:35:24.325Z,16.00
2022-10-21T17:37:53.999Z,15.90
2022-10-21T17:40:25.781Z,15.90
2022-10-21T17:42:54.545Z,15.90
2022-10-21T17:45:22.941Z,15.90
2022-10-21T17:47:52.663Z,15.90
2022-10-21T17:50:24.061Z,15.80
2022-10-21T17:52:56.346Z,15.80
2022-10-21T17:55:24.525Z,15.70
2022-10-21T17:57:53.087Z,15.60
2022-10-21T18:00:21.507Z,15.60
2022-10-21T18:02:49.503Z,15.50
2022-10-21T18:05:17.612Z,15.50
2022-10-21T18:07:45.983Z,15.40
2022-10-21T18:10:23.148Z,15.40
2022-10-21T18:12:51.532Z,15.40
2022-10-21T18:15:21.265Z,15.40
2022-10-21T18:17:49.837Z,15.50
2022-10-21T18:20:19.959Z,15.50
2022-10-21T18:22:48.708Z,15.50
2022-10-21T18:25:16.766Z,15.50
2022-10-21T18:30:17.740Z,15.30
2022-10-21T18:32:46.167Z,15.20
2022-10-21T18:35:16.040Z,15.20
2022-10-21T18:37:46.123Z,15.10
2022-10-21T18:40:16.511Z,15.10
2022-10-21T18:42:46.138Z,15.10
2022-10-21T18:45:14.443Z,15.10
2022-10-21T18:47:47.587Z,15.10
2022-10-21T18:50:16.032Z,15.10
2022-10-21T18:52:44.473Z,15.10
2022-10-21T18:55:13.004Z,15.00
2022-10-21T18:57:41.408Z,15.10
2022-10-21T19:00:10.409Z,15.00
2022-10-21T19:02:38.901Z,15.00
2022-10-21T19:05:07.394Z,15.00
2022-10-21T19:07:35.830Z,14.90
2022-10-21T19:10:04.960Z,14.90
2022-10-21T19:12:32.928Z,14.90
2022-10-21T19:15:01.226Z,14.90
2022-10-21T19:17:30.987Z,14.80
2022-10-21T19:20:00.875Z,14.70
2022-10-21T19:24:58.812Z,14.60
2022-10-21T19:27:27.209Z,14.50
2022-10-21T19:29:55.733Z,14.60
2022-10-21T19:32:24.254Z,14.60
2022-10-21T19:34:52.512Z,14.60
2022-10-21T19:37:20.933Z,14.50
2022-10-21T19:39:50.056Z,14.40
2022-10-21T19:42:18.105Z,14.40
2022-10-21T19:44:46.497Z,14.40
2022-10-21T19:47:14.986Z,14.30
2022-10-21T19:49:42.938Z,14.30
2022-10-21T19:52:11.522Z,14.30
2022-10-21T19:54:40.206Z,14.30
2022-10-21T19:57:08.278Z,14.30
2022-10-21T19:59:40.263Z,14.30
2022-10-21T20:02:12.154Z,14.20
2022-10-21T20:04:40.794Z,14.20
2022-10-21T20:07:08.939Z,14.20
2022-10-21T20:09:38.978Z,14.30
2022-10-21T20:12:13.377Z,14.20
2022-10-21T20:14:42.477Z,14.20
2022-10-21T20:17:12.345Z,14.10
2022-10-21T20:19:48.414Z,14.10
2022-10-21T20:22:17.817Z,14.10
2022-10-21T20:24:46.575Z,14.10
2022-10-21T20:27:15.137Z,14.10
2022-10-21T20:29:43.435Z,14.10
2022-10-21T20:32:11.952Z,14.10
2022-10-21T20:34:43.175Z,14.00
2022-10-21T20:37:11.059Z,14.00
2022-10-21T20:39:39.198Z,14.00
2022-10-21T20:42:07.487Z,14.10
2022-10-21T20:44:36.034Z,14.10
2022-10-21T20:47:05.923Z,14.10
2022-10-21T20:49:35.222Z,14.00
2022-10-21T20:52:03.506Z,14.10
2022-10-21T20:54:33.446Z,14.10
2022-10-21T20:57:01.373Z,14.10
2022-10-21T20:59:29.989Z,14.10
2022-10-21T21:01:58.432Z,14.00
2022-10-21T21:04:26.923Z,13.90
2022-10-21T21:06:55.346Z,13.90
2022-10-21T21:12:12.491Z,13.70
2022-10-21T21:14:41.132Z,13.70
2022-10-21T21:17:09.359Z,13.70
2022-10-21T21:19:39.851Z,13.70
2022-10-21T21:22:07.906Z,13.60
2022-10-21T21:24:36.339Z,13.60
2022-10-21T21:27:04.875Z,13.70
2022-10-21T21:29:33.209Z,13.70
2022-10-21T21:32:02.219Z,13.70
2022-10-21T21:34:30.804Z,13.70
2022-10-21T21:37:00.738Z,13.70
2022-10-21T21:39:28.642Z,13.60
2022-10-21T21:41:56.910Z,13.60
2022-10-21T21:44:24.982Z,13.70
2022-10-21T21:46:53.338Z,13.60
2022-10-21T21:49:21.990Z,13.60
2022-10-21T21:51:49.985Z,13.60
2022-10-21T21:54:18.397Z,13.50
2022-10-21T21:56:47.007Z,13.40
2022-10-21T21:59:15.292Z,13.30
2022-10-21T22:01:46.251Z,13.30
2022-10-21T22:04:15.320Z,13.30
2022-10-21T22:06:43.385Z,13.20
2022-10-21T22:09:12.368Z,13.10
2022-10-21T22:11:40.447Z,13.10
2022-10-21T22:14:09.007Z,13.10
2022-10-21T22:16:40.059Z,13.00
2022-10-21T22:19:08.214Z,13.00
2022-10-21T22:21:39.748Z,13.00
2022-10-21T22:24:07.942Z,12.90
2022-10-21T22:26:36.487Z,12.90
2022-10-21T22:29:05.092Z,12.80
2022-10-21T22:31:33.084Z,12.80
2022-10-21T22:34:01.552Z,12.80
2022-10-21T22:36:32.913Z,12.90
2022-10-21T22:39:05.017Z,12.90
2022-10-21T22:41:32.999Z,13.00
2022-10-21T22:44:01.016Z,13.00
2022-10-21T22:46:34.009Z,13.00
2022-10-21T22:49:04.924Z,13.00
2022-10-21T22:51:34.125Z,13.00
2022-10-21T22:54:02.553Z,13.00
2022-10-21T22:56:32.151Z,12.90
2022-10-21T22:59:00.500Z,13.00
2022-10-21T23:01:31.218Z,13.00
2022-10-21T23:04:04.432Z,13.00
2022-10-21T23:06:36.485Z,13.00
2022-10-21T23:09:05.964Z,13.10
2022-10-21T23:11:36.203Z,13.00
2022-10-21T23:14:08.823Z,13.10
2022-10-21T23:16:40.978Z,13.00
2022-10-21T23:21:42.381Z,13.00
2022-10-21T23:24:11.423Z,12.90
2022-10-21T23:26:39.952Z,12.80
2022-10-21T23:29:08.461Z,12.80
2022-10-21T23:31:36.508Z,12.80
2022-10-21T23:34:06.099Z,12.80
2022-10-21T23:36:35.662Z,12.80
2022-10-21T23:39:04.590Z,12.80
2022-10-21T23:41:32.919Z,12.80
2022-10-21T23:44:00.858Z,12.70
2022-10-21T23:46:28.931Z,12.70
2022-10-21T23:48:56.862Z,12.70
2022-10-21T23:51:25.425Z,12.70
2022-10-21T23:53:53.912Z,12.70
2022-10-21T23:56:22.171Z,12.70
2022-10-21T23:58:50.709Z,12.70
